KSWF/SWF METAR and TAF weather

Enter ICAO airport designator
Station Type Date Time Source
KSWF METAR 2019/11/14 03:45 UTC NOAA

KSWF 140345Z 00000KT 10SM SKC M05/M12 A3043


Station Type Date Time Source
KSWF Decoded METAR 2019/11/14 03:45 UTC NOAA

Newburgh / Stewart, NY, United States (KSWF) 41-30N 074-06W
Nov 13, 2019 - 10:45 PM EST / 2019.11.14 0345 UTC
Wind: Calm:0
Visibility: 10 mile(s):0
Sky conditions: clear
Temperature: 23 F (-5 C)
Dew Point: 10 F (-12 C)
Relative Humidity: 57%
Pressure (altimeter): 30.43 in. Hg (1030 hPa)
ob: KSWF 140345Z 00000KT 10SM SKC M05/M12 A3043
cycle: 4

Station Type Date Time Source
KSWF TAF 2019/11/14 02:12 UTC NOAA

TAF
AMD KSWF 140210Z 1402/1506 VRB04KT P6SM SCT250
FM141500 21006KT P6SM FEW040 BKN250
FM141700 20009KT P6SM FEW040 BKN250
FM150000 VRB03KT P6SM SCT030 SCT250
AMD NOT SKED

Example: see airport list